PWSweather.com
Personal Weather Stations
Station Observations
K4FB1
Clubhouse Heritage, Lakeland, FL 33812

Clubhouse HeritageLakeland, FL 33812

Lat: 27.969224, Lon: -81.897769

Elevation: 145

Station Type: Davis Vantage Pro2

http://www.ClubhouseWX.com

High Low Average
Temperature 83.9°F28.8°C 61.3°F16.3°C 73.1°F22.8°C
Dew Point 70.9°F21.6°C -40.5°F-40.3°C 7.3°F-13.7°C
Winds 6.0 mph 9.7 kmh 1.0 mph 1.6 kmh 4.0 mph WSW6.4 kmh WSW
Wind Gusts 15.0 mph24.1 kmh 2.0 mph3.2 kmh 9.0 mph14.5 kmh
Humidity 66% 0% 24%
Pressure 30.04 in1017.3 mb 29.89 in1012.2 mb -
Precipitation 0.79 in20.1 mm - -
Hour Temp Dew Point Humidity Winds Wind Gusts Pressure Precip Precip Rate Daily Precip Total
12:00 AM 69.1°F20.6°C -35.1°F-37.3°C 0% 1.0 mph S1.6 kmh S 3.0 mph4.8 kmh 29.93 in1013.5 mb 0.00 in0.0 mm 0.00 in0.0 mm 0.00 in0.0 mm
12:05 AM 69.1°F20.6°C -35.1°F-37.3°C 0% 2.0 mph SW3.2 kmh SW 6.0 mph9.7 kmh 29.93 in1013.5 mb 0.00 in0.0 mm 0.00 in0.0 mm 0.00 in0.0 mm
12:10 AM 69.1°F20.6°C -35.1°F-37.3°C 0% 2.0 mph SSW3.2 kmh SSW 6.0 mph9.7 kmh 29.93 in1013.5 mb 0.00 in0.0 mm 0.00 in0.0 mm 0.00 in0.0 mm
12:15 AM 69.1°F20.6°C -35.1°F-37.3°C 0% 2.0 mph S3.2 kmh S 5.0 mph8.0 kmh 29.93 in1013.5 mb 0.00 in0.0 mm 0.00 in0.0 mm 0.00 in0.0 mm
12:20 AM 69.2°F20.7°C -35.1°F-37.3°C 0% 2.0 mph S3.2 kmh S 5.0 mph8.0 kmh 29.93 in1013.5 mb 0.00 in0.0 mm 0.00 in0.0 mm 0.00 in0.0 mm
12:25 AM 69.2°F20.7°C -35.1°F-37.3°C 0% 2.0 mph S3.2 kmh S 5.0 mph8.0 kmh 29.93 in1013.5 mb 0.00 in0.0 mm 0.00 in0.0 mm 0.00 in0.0 mm
12:30 AM 69.1°F20.6°C -35.1°F-37.3°C 0% 2.0 mph S3.2 kmh S 6.0 mph9.7 kmh 29.93 in1013.5 mb 0.00 in0.0 mm 0.00 in0.0 mm 0.00 in0.0 mm
12:35 AM 69.2°F20.7°C -35.1°F-37.3°C 0% 3.0 mph S4.8 kmh S 6.0 mph9.7 kmh 29.93 in1013.5 mb 0.00 in0.0 mm 0.00 in0.0 mm 0.00 in0.0 mm
12:40 AM 69.2°F20.7°C -35.1°F-37.3°C 0% 3.0 mph S4.8 kmh S 6.0 mph9.7 kmh 29.93 in1013.5 mb 0.00 in0.0 mm 0.00 in0.0 mm 0.00 in0.0 mm
12:45 AM 69.3°F20.7°C -35.1°F-37.3°C 0% 2.0 mph S3.2 kmh S 6.0 mph9.7 kmh 29.93 in1013.5 mb 0.00 in0.0 mm 0.00 in0.0 mm 0.00 in0.0 mm
12:50 AM 69.5°F20.8°C -35.1°F-37.3°C 0% 3.0 mph SSW4.8 kmh SSW 8.0 mph12.9 kmh 29.93 in1013.5 mb 0.00 in0.0 mm 0.00 in0.0 mm 0.00 in0.0 mm
12:55 AM 69.6°F20.9°C -35.1°F-37.3°C 0% 2.0 mph SSW3.2 kmh SSW 8.0 mph12.9 kmh 29.93 in1013.5 mb 0.00 in0.0 mm 0.00 in0.0 mm 0.00 in0.0 mm
01:00 AM 69.8°F21.0°C -35.1°F-37.3°C 0% 3.0 mph SSW4.8 kmh SSW 7.0 mph11.3 kmh 29.93 in1013.5 mb 0.00 in0.0 mm 0.00 in0.0 mm 0.00 in0.0 mm
01:05 AM 70.0°F21.1°C -35.1°F-37.3°C 0% 4.0 mph SSW6.4 kmh SSW 8.0 mph12.9 kmh 29.93 in1013.5 mb 0.00 in0.0 mm 0.00 in0.0 mm 0.00 in0.0 mm
01:10 AM 70.2°F21.2°C -35.1°F-37.3°C 0% 4.0 mph SSW6.4 kmh SSW 8.0 mph12.9 kmh 29.93 in1013.5 mb 0.00 in0.0 mm 0.00 in0.0 mm 0.00 in0.0 mm
01:15 AM 70.2°F21.2°C -35.1°F-37.3°C 0% 3.0 mph SSW4.8 kmh SSW 10.0 mph16.1 kmh 29.92 in1013.2 mb 0.00 in0.0 mm 0.00 in0.0 mm 0.00 in0.0 mm
01:20 AM 70.3°F21.3°C -35.1°F-37.3°C 0% 4.0 mph SSW6.4 kmh SSW 10.0 mph16.1 kmh 29.92 in1013.2 mb 0.00 in0.0 mm 0.00 in0.0 mm 0.00 in0.0 mm
01:25 AM 70.4°F21.3°C -35.1°F-37.3°C 0% 4.0 mph SSW6.4 kmh SSW 9.0 mph14.5 kmh 29.93 in1013.5 mb 0.00 in0.0 mm 0.00 in0.0 mm 0.00 in0.0 mm
01:30 AM 70.4°F21.3°C -35.1°F-37.3°C 0% 3.0 mph SSW4.8 kmh SSW 9.0 mph14.5 kmh 29.92 in1013.2 mb 0.00 in0.0 mm 0.00 in0.0 mm 0.00 in0.0 mm
01:35 AM 70.4°F21.3°C -35.1°F-37.3°C 0% 3.0 mph SSW4.8 kmh SSW 9.0 mph14.5 kmh 29.92 in1013.2 mb 0.00 in0.0 mm 0.00 in0.0 mm 0.00 in0.0 mm
01:40 AM 70.4°F21.3°C -35.1°F-37.3°C 0% 4.0 mph S6.4 kmh S 9.0 mph14.5 kmh 29.92 in1013.2 mb 0.00 in0.0 mm 0.00 in0.0 mm 0.00 in0.0 mm
01:45 AM 70.4°F21.3°C -35.1°F-37.3°C 0% 4.0 mph S6.4 kmh S 9.0 mph14.5 kmh 29.91 in1012.9 mb 0.00 in0.0 mm 0.00 in0.0 mm 0.00 in0.0 mm
01:50 AM 70.4°F21.3°C -35.1°F-37.3°C 0% 4.0 mph S6.4 kmh S 8.0 mph12.9 kmh 29.91 in1012.9 mb 0.00 in0.0 mm 0.00 in0.0 mm 0.00 in0.0 mm
01:55 AM 70.4°F21.3°C -35.1°F-37.3°C 0% 4.0 mph S6.4 kmh S 8.0 mph12.9 kmh 29.92 in1013.2 mb 0.00 in0.0 mm 0.00 in0.0 mm 0.00 in0.0 mm
02:00 AM 70.4°F21.3°C -35.1°F-37.3°C 0% 4.0 mph S6.4 kmh S 7.0 mph11.3 kmh 29.92 in1013.2 mb 0.00 in0.0 mm 0.00 in0.0 mm 0.00 in0.0 mm
02:05 AM 70.6°F21.4°C -35.1°F-37.3°C 0% 3.0 mph SSW4.8 kmh SSW 7.0 mph11.3 kmh 29.92 in1013.2 mb 0.00 in0.0 mm 0.00 in0.0 mm 0.00 in0.0 mm
02:10 AM 70.7°F21.5°C -35.1°F-37.3°C 0% 3.0 mph SSW4.8 kmh SSW 8.0 mph12.9 kmh 29.92 in1013.2 mb 0.00 in0.0 mm 0.00 in0.0 mm 0.00 in0.0 mm
02:15 AM 70.9°F21.6°C -35.1°F-37.3°C 0% 4.0 mph SSW6.4 kmh SSW 9.0 mph14.5 kmh 29.91 in1012.9 mb 0.00 in0.0 mm 0.00 in0.0 mm 0.00 in0.0 mm
02:20 AM 71.0°F21.7°C -35.1°F-37.3°C 0% 4.0 mph SSW6.4 kmh SSW 9.0 mph14.5 kmh 29.92 in1013.2 mb 0.00 in0.0 mm 0.00 in0.0 mm 0.00 in0.0 mm
02:25 AM 71.0°F21.7°C -35.1°F-37.3°C 0% 3.0 mph SW4.8 kmh SW 8.0 mph12.9 kmh 29.92 in1013.2 mb 0.00 in0.0 mm 0.00 in0.0 mm 0.00 in0.0 mm
02:30 AM 71.0°F21.7°C -35.1°F-37.3°C 0% 3.0 mph SW4.8 kmh SW 8.0 mph12.9 kmh 29.92 in1013.2 mb 0.00 in0.0 mm 0.00 in0.0 mm 0.00 in0.0 mm
02:35 AM 71.1°F21.7°C -35.1°F-37.3°C 0% 3.0 mph SW4.8 kmh SW 8.0 mph12.9 kmh 29.92 in1013.2 mb 0.00 in0.0 mm 0.00 in0.0 mm 0.00 in0.0 mm
02:40 AM 71.1°F21.7°C -35.1°F-37.3°C 0% 3.0 mph SW4.8 kmh SW 8.0 mph12.9 kmh 29.91 in1012.9 mb 0.00 in0.0 mm 0.00 in0.0 mm 0.00 in0.0 mm
02:45 AM 71.2°F21.8°C -35.1°F-37.3°C 0% 3.0 mph SW4.8 kmh SW 7.0 mph11.3 kmh 29.91 in1012.9 mb 0.00 in0.0 mm 0.00 in0.0 mm 0.00 in0.0 mm
02:50 AM 71.2°F21.8°C -35.1°F-37.3°C 0% 3.0 mph SW4.8 kmh SW 7.0 mph11.3 kmh 29.91 in1012.9 mb 0.00 in0.0 mm 0.00 in0.0 mm 0.00 in0.0 mm
02:55 AM 71.3°F21.8°C -35.1°F-37.3°C 0% 3.0 mph SSW4.8 kmh SSW 6.0 mph9.7 kmh 29.91 in1012.9 mb 0.00 in0.0 mm 0.00 in0.0 mm 0.00 in0.0 mm
03:00 AM 71.3°F21.8°C -35.1°F-37.3°C 0% 3.0 mph SSW4.8 kmh SSW 7.0 mph11.3 kmh 29.90 in1012.5 mb 0.00 in0.0 mm 0.00 in0.0 mm 0.00 in0.0 mm
03:05 AM 71.3°F21.8°C -35.1°F-37.3°C 0% 3.0 mph S4.8 kmh S 7.0 mph11.3 kmh 29.90 in1012.5 mb 0.00 in0.0 mm 0.00 in0.0 mm 0.00 in0.0 mm
03:10 AM 71.3°F21.8°C -35.1°F-37.3°C 0% 2.0 mph SSW3.2 kmh SSW 6.0 mph9.7 kmh 29.91 in1012.9 mb 0.00 in0.0 mm 0.00 in0.0 mm 0.00 in0.0 mm
03:15 AM 71.4°F21.9°C -35.1°F-37.3°C 0% 3.0 mph SW4.8 kmh SW 7.0 mph11.3 kmh 29.91 in1012.9 mb 0.00 in0.0 mm 0.00 in0.0 mm 0.00 in0.0 mm
03:20 AM 71.5°F21.9°C -35.1°F-37.3°C 0% 3.0 mph SW4.8 kmh SW 7.0 mph11.3 kmh 29.92 in1013.2 mb 0.00 in0.0 mm 0.00 in0.0 mm 0.00 in0.0 mm
03:25 AM 71.6°F22.0°C -35.1°F-37.3°C 0% 2.0 mph SW3.2 kmh SW 6.0 mph9.7 kmh 29.91 in1012.9 mb 0.00 in0.0 mm 0.00 in0.0 mm 0.00 in0.0 mm
03:30 AM 71.7°F22.1°C -35.1°F-37.3°C 0% 3.0 mph SW4.8 kmh SW 7.0 mph11.3 kmh 29.90 in1012.5 mb 0.00 in0.0 mm 0.00 in0.0 mm 0.00 in0.0 mm
03:35 AM 71.7°F22.1°C -35.1°F-37.3°C 0% 4.0 mph SSW6.4 kmh SSW 10.0 mph16.1 kmh 29.89 in1012.2 mb 0.00 in0.0 mm 0.00 in0.0 mm 0.00 in0.0 mm
03:40 AM 71.8°F22.1°C -35.1°F-37.3°C 0% 4.0 mph S6.4 kmh S 10.0 mph16.1 kmh 29.90 in1012.5 mb 0.00 in0.0 mm 0.00 in0.0 mm 0.00 in0.0 mm
03:45 AM 71.8°F22.1°C -35.1°F-37.3°C 0% 3.0 mph SSW4.8 kmh SSW 8.0 mph12.9 kmh 29.91 in1012.9 mb 0.00 in0.0 mm 0.00 in0.0 mm 0.00 in0.0 mm
03:50 AM 71.9°F22.2°C -35.1°F-37.3°C 0% 3.0 mph SSW4.8 kmh SSW 8.0 mph12.9 kmh 29.90 in1012.5 mb 0.00 in0.0 mm 0.00 in0.0 mm 0.00 in0.0 mm
03:55 AM 72.0°F22.2°C -35.1°F-37.3°C 0% 3.0 mph SW4.8 kmh SW 8.0 mph12.9 kmh 29.90 in1012.5 mb 0.00 in0.0 mm 0.00 in0.0 mm 0.00 in0.0 mm
04:00 AM 72.1°F22.3°C -35.1°F-37.3°C 0% 3.0 mph SW4.8 kmh SW 7.0 mph11.3 kmh 29.89 in1012.2 mb 0.00 in0.0 mm 0.00 in0.0 mm 0.00 in0.0 mm
04:05 AM 72.2°F22.3°C -35.1°F-37.3°C 0% 3.0 mph SSW4.8 kmh SSW 9.0 mph14.5 kmh 29.89 in1012.2 mb 0.00 in0.0 mm 0.00 in0.0 mm 0.00 in0.0 mm
04:10 AM 72.3°F22.4°C -35.1°F-37.3°C 0% 4.0 mph SSW6.4 kmh SSW 9.0 mph14.5 kmh 29.90 in1012.5 mb 0.00 in0.0 mm 0.00 in0.0 mm 0.00 in0.0 mm
04:15 AM 72.3°F22.4°C -35.1°F-37.3°C 0% 4.0 mph SW6.4 kmh SW 9.0 mph14.5 kmh 29.89 in1012.2 mb 0.00 in0.0 mm 0.00 in0.0 mm 0.00 in0.0 mm
04:20 AM 72.4°F22.4°C -35.1°F-37.3°C 0% 4.0 mph SW6.4 kmh SW 9.0 mph14.5 kmh 29.89 in1012.2 mb 0.00 in0.0 mm 0.00 in0.0 mm 0.00 in0.0 mm
04:25 AM 72.4°F22.4°C -35.1°F-37.3°C 0% 4.0 mph SSW6.4 kmh SSW 8.0 mph12.9 kmh 29.89 in1012.2 mb 0.00 in0.0 mm 0.00 in0.0 mm 0.00 in0.0 mm
04:30 AM 72.4°F22.4°C -35.1°F-37.3°C 0% 4.0 mph SSW6.4 kmh SSW 8.0 mph12.9 kmh 29.89 in1012.2 mb 0.00 in0.0 mm 0.00 in0.0 mm 0.00 in0.0 mm
04:35 AM 72.3°F22.4°C -35.1°F-37.3°C 0% 3.0 mph SW4.8 kmh SW 8.0 mph12.9 kmh 29.90 in1012.5 mb 0.00 in0.0 mm 0.00 in0.0 mm 0.00 in0.0 mm
04:40 AM 72.3°F22.4°C -35.1°F-37.3°C 0% 3.0 mph SW4.8 kmh SW 8.0 mph12.9 kmh 29.90 in1012.5 mb 0.00 in0.0 mm 0.00 in0.0 mm 0.00 in0.0 mm
04:45 AM 72.3°F22.4°C -35.1°F-37.3°C 0% 3.0 mph SW4.8 kmh SW 8.0 mph12.9 kmh 29.90 in1012.5 mb 0.00 in0.0 mm 0.00 in0.0 mm 0.00 in0.0 mm
04:50 AM 72.4°F22.4°C -35.1°F-37.3°C 0% 2.0 mph SW3.2 kmh SW 7.0 mph11.3 kmh 29.90 in1012.5 mb 0.00 in0.0 mm 0.00 in0.0 mm 0.00 in0.0 mm
04:55 AM 72.4°F22.4°C -35.1°F-37.3°C 0% 2.0 mph SW3.2 kmh SW 7.0 mph11.3 kmh 29.90 in1012.5 mb 0.00 in0.0 mm 0.00 in0.0 mm 0.00 in0.0 mm
05:00 AM 72.4°F22.4°C -35.1°F-37.3°C 0% 2.0 mph WSW3.2 kmh WSW 7.0 mph11.3 kmh 29.90 in1012.5 mb 0.00 in0.0 mm 0.00 in0.0 mm 0.00 in0.0 mm
05:05 AM 72.4°F22.4°C -35.1°F-37.3°C 0% 3.0 mph WSW4.8 kmh WSW 8.0 mph12.9 kmh 29.90 in1012.5 mb 0.00 in0.0 mm 0.00 in0.0 mm 0.00 in0.0 mm
05:10 AM 72.5°F22.5°C -35.1°F-37.3°C 0% 3.0 mph WSW4.8 kmh WSW 8.0 mph12.9 kmh 29.90 in1012.5 mb 0.00 in0.0 mm 0.00 in0.0 mm 0.00 in0.0 mm
05:15 AM 72.5°F22.5°C -35.1°F-37.3°C 0% 3.0 mph SW4.8 kmh SW 6.0 mph9.7 kmh 29.90 in1012.5 mb 0.00 in0.0 mm 0.00 in0.0 mm 0.00 in0.0 mm
05:20 AM 72.5°F22.5°C -35.1°F-37.3°C 0% 3.0 mph SW4.8 kmh SW 7.0 mph11.3 kmh 29.91 in1012.9 mb 0.00 in0.0 mm 0.00 in0.0 mm 0.00 in0.0 mm
05:25 AM 72.5°F22.5°C -35.1°F-37.3°C 0% 3.0 mph SW4.8 kmh SW 9.0 mph14.5 kmh 29.90 in1012.5 mb 0.00 in0.0 mm 0.00 in0.0 mm 0.00 in0.0 mm
05:30 AM 72.5°F22.5°C -35.1°F-37.3°C 0% 3.0 mph SW4.8 kmh SW 9.0 mph14.5 kmh 29.90 in1012.5 mb 0.00 in0.0 mm 0.00 in0.0 mm 0.00 in0.0 mm
05:35 AM 72.5°F22.5°C -35.1°F-37.3°C 0% 3.0 mph SW4.8 kmh SW 6.0 mph9.7 kmh 29.91 in1012.9 mb 0.00 in0.0 mm 0.00 in0.0 mm 0.00 in0.0 mm
05:40 AM 72.6°F22.6°C -35.1°F-37.3°C 0% 3.0 mph SW4.8 kmh SW 7.0 mph11.3 kmh 29.91 in1012.9 mb 0.00 in0.0 mm 0.00 in0.0 mm 0.00 in0.0 mm
05:45 AM 72.6°F22.6°C -35.1°F-37.3°C 0% 2.0 mph SW3.2 kmh SW 7.0 mph11.3 kmh 29.92 in1013.2 mb 0.00 in0.0 mm 0.00 in0.0 mm 0.00 in0.0 mm
05:50 AM 72.6°F22.6°C -35.1°F-37.3°C 0% 2.0 mph SW3.2 kmh SW 5.0 mph8.0 kmh 29.91 in1012.9 mb 0.00 in0.0 mm 0.00 in0.0 mm 0.00 in0.0 mm
05:55 AM 72.6°F22.6°C -35.1°F-37.3°C 0% 2.0 mph SSW3.2 kmh SSW 5.0 mph8.0 kmh 29.91 in1012.9 mb 0.00 in0.0 mm 0.00 in0.0 mm 0.00 in0.0 mm
06:00 AM 72.6°F22.6°C -35.1°F-37.3°C 0% 2.0 mph SSW3.2 kmh SSW 5.0 mph8.0 kmh 29.91 in1012.9 mb 0.00 in0.0 mm 0.00 in0.0 mm 0.00 in0.0 mm
06:05 AM 72.6°F22.6°C -35.1°F-37.3°C 0% 2.0 mph SW3.2 kmh SW 5.0 mph8.0 kmh 29.92 in1013.2 mb 0.01 in0.3 mm 0.12 in3.0 mm 0.01 in0.3 mm
06:10 AM 72.6°F22.6°C -35.1°F-37.3°C 0% 2.0 mph SSW3.2 kmh SSW 6.0 mph9.7 kmh 29.91 in1012.9 mb 0.03 in0.8 mm 0.24 in6.1 mm 0.03 in0.8 mm
06:15 AM 72.6°F22.6°C -35.1°F-37.3°C 0% 2.0 mph SW3.2 kmh SW 6.0 mph9.7 kmh 29.92 in1013.2 mb 0.03 in0.8 mm 0.00 in0.0 mm 0.03 in0.8 mm
06:20 AM 72.0°F22.2°C -35.1°F-37.3°C 0% 3.0 mph WSW4.8 kmh WSW 14.0 mph22.5 kmh 29.93 in1013.5 mb 0.07 in1.8 mm 0.48 in12.2 mm 0.07 in1.8 mm
06:25 AM 70.8°F21.6°C -35.1°F-37.3°C 0% 4.0 mph W6.4 kmh W 14.0 mph22.5 kmh 29.93 in1013.5 mb 0.19 in4.8 mm 1.44 in36.6 mm 0.19 in4.8 mm
06:30 AM 70.2°F21.2°C -35.1°F-37.3°C 0% 3.0 mph W4.8 kmh W 7.0 mph11.3 kmh 29.92 in1013.2 mb 0.25 in6.4 mm 0.72 in18.3 mm 0.25 in6.4 mm
06:35 AM 69.6°F20.9°C -35.1°F-37.3°C 0% 3.0 mph WSW4.8 kmh WSW 5.0 mph8.0 kmh 29.93 in1013.5 mb 0.27 in6.9 mm 0.24 in6.1 mm 0.27 in6.9 mm
06:40 AM 69.2°F20.7°C -35.1°F-37.3°C 0% 3.0 mph WSW4.8 kmh WSW 11.0 mph17.7 kmh 29.95 in1014.2 mb 0.39 in9.9 mm 1.44 in36.6 mm 0.39 in9.9 mm
06:45 AM 68.9°F20.5°C -35.1°F-37.3°C 0% 3.0 mph WSW4.8 kmh WSW 11.0 mph17.7 kmh 29.93 in1013.5 mb 0.48 in12.2 mm 1.08 in27.4 mm 0.48 in12.2 mm
06:50 AM 68.7°F20.4°C -35.1°F-37.3°C 0% 3.0 mph W4.8 kmh W 8.0 mph12.9 kmh 29.93 in1013.5 mb 0.52 in13.2 mm 0.48 in12.2 mm 0.52 in13.2 mm
06:55 AM 68.6°F20.3°C -35.1°F-37.3°C 0% 3.0 mph WNW4.8 kmh WNW 8.0 mph12.9 kmh 29.94 in1013.9 mb 0.54 in13.7 mm 0.24 in6.1 mm 0.54 in13.7 mm
07:00 AM 68.5°F20.3°C -35.1°F-37.3°C 0% 3.0 mph WNW4.8 kmh WNW 7.0 mph11.3 kmh 29.94 in1013.9 mb 0.55 in14.0 mm 0.01 in0.3 mm 0.55 in14.0 mm
07:05 AM 68.4°F20.2°C -35.1°F-37.3°C 0% 2.0 mph W3.2 kmh W 6.0 mph9.7 kmh 29.94 in1013.9 mb 0.56 in14.2 mm 0.12 in3.0 mm 0.57 in14.5 mm
07:10 AM 68.4°F20.2°C -35.1°F-37.3°C 0% 2.0 mph W3.2 kmh W 8.0 mph12.9 kmh 29.95 in1014.2 mb 0.56 in14.2 mm 0.00 in0.0 mm 0.59 in15.0 mm
07:15 AM 68.4°F20.2°C -35.1°F-37.3°C 0% 3.0 mph W4.8 kmh W 8.0 mph12.9 kmh 29.94 in1013.9 mb 0.60 in15.2 mm 0.48 in12.2 mm 0.63 in16.0 mm
07:20 AM 68.4°F20.2°C -35.1°F-37.3°C 0% 3.0 mph W4.8 kmh W 7.0 mph11.3 kmh 29.94 in1013.9 mb 0.59 in15.0 mm 0.00 in0.0 mm 0.68 in17.3 mm
07:25 AM 68.3°F20.2°C -35.1°F-37.3°C 0% 2.0 mph W3.2 kmh W 6.0 mph9.7 kmh 29.93 in1013.5 mb 0.51 in13.0 mm 0.00 in0.0 mm 0.70 in17.8 mm
07:30 AM 68.3°F20.2°C -35.1°F-37.3°C 0% 1.0 mph W1.6 kmh W 4.0 mph6.4 kmh 29.94 in1013.9 mb 0.46 in11.7 mm 0.00 in0.0 mm 0.71 in18.0 mm
07:35 AM 68.3°F20.2°C -35.1°F-37.3°C 0% 1.0 mph WNW1.6 kmh WNW 4.0 mph6.4 kmh 29.94 in1013.9 mb 0.45 in11.4 mm 0.00 in0.0 mm 0.72 in18.3 mm
07:40 AM 68.4°F20.2°C -35.1°F-37.3°C 0% 1.0 mph WNW1.6 kmh WNW 3.0 mph4.8 kmh 29.94 in1013.9 mb 0.38 in9.7 mm 0.00 in0.0 mm 0.77 in19.6 mm
07:45 AM 68.4°F20.2°C -35.1°F-37.3°C 0% 1.0 mph WNW1.6 kmh WNW 3.0 mph4.8 kmh 29.94 in1013.9 mb 0.27 in6.9 mm 0.00 in0.0 mm 0.77 in19.6 mm
07:50 AM 68.4°F20.2°C -35.1°F-37.3°C 0% 2.0 mph WSW3.2 kmh WSW 4.0 mph6.4 kmh 29.94 in1013.9 mb 0.24 in6.1 mm 0.00 in0.0 mm 0.77 in19.6 mm
07:55 AM 68.5°F20.3°C -35.1°F-37.3°C 0% 3.0 mph S4.8 kmh S 6.0 mph9.7 kmh 29.95 in1014.2 mb 0.23 in5.8 mm 0.00 in0.0 mm 0.77 in19.6 mm
08:00 AM 68.5°F20.3°C -35.1°F-37.3°C 0% 3.0 mph S4.8 kmh S 6.0 mph9.7 kmh 29.94 in1013.9 mb 0.22 in5.6 mm 0.00 in0.0 mm 0.77 in19.6 mm
08:05 AM 68.5°F20.3°C -35.1°F-37.3°C 0% 2.0 mph S3.2 kmh S 6.0 mph9.7 kmh 29.95 in1014.2 mb 0.20 in5.1 mm 0.00 in0.0 mm 0.77 in19.6 mm
08:10 AM 68.5°F20.3°C -35.1°F-37.3°C 0% 1.0 mph S1.6 kmh S 6.0 mph9.7 kmh 29.95 in1014.2 mb 0.19 in4.8 mm 0.00 in0.0 mm 0.78 in19.8 mm
08:15 AM 68.5°F20.3°C -35.1°F-37.3°C 0% 1.0 mph S1.6 kmh S 2.0 mph3.2 kmh 29.95 in1014.2 mb 0.15 in3.8 mm 0.00 in0.0 mm 0.78 in19.8 mm
08:20 AM 68.5°F20.3°C -35.1°F-37.3°C 0% 2.0 mph S3.2 kmh S 4.0 mph6.4 kmh 29.95 in1014.2 mb 0.10 in2.5 mm 0.00 in0.0 mm 0.78 in19.8 mm
08:25 AM 68.6°F20.3°C -35.1°F-37.3°C 0% 2.0 mph S3.2 kmh S 4.0 mph6.4 kmh 29.95 in1014.2 mb 0.08 in2.0 mm 0.00 in0.0 mm 0.78 in19.8 mm
08:30 AM 68.6°F20.3°C -35.1°F-37.3°C 0% 2.0 mph S3.2 kmh S 3.0 mph4.8 kmh 29.95 in1014.2 mb 0.07 in1.8 mm 0.00 in0.0 mm 0.78 in19.8 mm
08:35 AM 68.6°F20.3°C -35.1°F-37.3°C 0% 2.0 mph S3.2 kmh S 4.0 mph6.4 kmh 29.95 in1014.2 mb 0.07 in1.8 mm 0.00 in0.0 mm 0.79 in20.1 mm
08:40 AM 68.7°F20.4°C -35.1°F-37.3°C 0% 2.0 mph S3.2 kmh S 4.0 mph6.4 kmh 29.95 in1014.2 mb 0.02 in0.5 mm 0.00 in0.0 mm 0.79 in20.1 mm
08:45 AM 68.7°F20.4°C -35.1°F-37.3°C 0% 2.0 mph S3.2 kmh S 4.0 mph6.4 kmh 29.95 in1014.2 mb 0.02 in0.5 mm 0.00 in0.0 mm 0.79 in20.1 mm
08:50 AM 68.8°F20.4°C -35.1°F-37.3°C 0% 2.0 mph S3.2 kmh S 5.0 mph8.0 kmh 29.95 in1014.2 mb 0.02 in0.5 mm 0.00 in0.0 mm 0.79 in20.1 mm
08:55 AM 68.9°F20.5°C -35.1°F-37.3°C 0% 3.0 mph S4.8 kmh S 5.0 mph8.0 kmh 29.95 in1014.2 mb 0.02 in0.5 mm 0.00 in0.0 mm 0.79 in20.1 mm
09:00 AM 68.9°F20.5°C -35.1°F-37.3°C 0% 3.0 mph S4.8 kmh S 5.0 mph8.0 kmh 29.95 in1014.2 mb 0.02 in0.5 mm 0.00 in0.0 mm 0.79 in20.1 mm
09:05 AM 69.0°F20.6°C -35.1°F-37.3°C 0% 3.0 mph S4.8 kmh S 5.0 mph8.0 kmh 29.95 in1014.2 mb 0.02 in0.5 mm 0.00 in0.0 mm 0.79 in20.1 mm
09:10 AM 69.1°F20.6°C -35.1°F-37.3°C 0% 3.0 mph S4.8 kmh S 4.0 mph6.4 kmh 29.95 in1014.2 mb 0.01 in0.3 mm 0.00 in0.0 mm 0.79 in20.1 mm
09:15 AM 69.2°F20.7°C -35.1°F-37.3°C 0% 3.0 mph S4.8 kmh S 4.0 mph6.4 kmh 29.95 in1014.2 mb 0.01 in0.3 mm 0.00 in0.0 mm 0.79 in20.1 mm
09:20 AM 69.6°F20.9°C -35.1°F-37.3°C 0% 2.0 mph S3.2 kmh S 4.0 mph6.4 kmh 29.95 in1014.2 mb 0.01 in0.3 mm 0.00 in0.0 mm 0.79 in20.1 mm
09:25 AM 70.3°F21.3°C -35.1°F-37.3°C 0% 2.0 mph S3.2 kmh S 4.0 mph6.4 kmh 29.95 in1014.2 mb 0.01 in0.3 mm 0.00 in0.0 mm 0.79 in20.1 mm
09:30 AM 70.9°F21.6°C -35.1°F-37.3°C 0% 2.0 mph S3.2 kmh S 6.0 mph9.7 kmh 29.95 in1014.2 mb 0.01 in0.3 mm 0.00 in0.0 mm 0.79 in20.1 mm
09:35 AM 71.2°F21.8°C -35.1°F-37.3°C 0% 3.0 mph S4.8 kmh S 6.0 mph9.7 kmh 29.95 in1014.2 mb 0.00 in0.0 mm 0.00 in0.0 mm 0.79 in20.1 mm
09:40 AM 71.4°F21.9°C -35.1°F-37.3°C 0% 3.0 mph S4.8 kmh S 6.0 mph9.7 kmh 29.96 in1014.6 mb 0.00 in0.0 mm 0.00 in0.0 mm 0.79 in20.1 mm
09:45 AM 71.5°F21.9°C -35.1°F-37.3°C 0% 2.0 mph S3.2 kmh S 6.0 mph9.7 kmh 29.96 in1014.6 mb 0.00 in0.0 mm 0.00 in0.0 mm 0.79 in20.1 mm
09:50 AM 71.9°F22.2°C -35.1°F-37.3°C 0% 2.0 mph S3.2 kmh S 4.0 mph6.4 kmh 29.95 in1014.2 mb 0.00 in0.0 mm 0.00 in0.0 mm 0.79 in20.1 mm
09:55 AM 72.3°F22.4°C -35.1°F-37.3°C 0% 2.0 mph SSW3.2 kmh SSW 5.0 mph8.0 kmh 29.96 in1014.6 mb 0.00 in0.0 mm 0.00 in0.0 mm 0.79 in20.1 mm
10:00 AM 72.4°F22.4°C -35.1°F-37.3°C 0% 2.0 mph SW3.2 kmh SW 5.0 mph8.0 kmh 29.96 in1014.6 mb 0.00 in0.0 mm 0.00 in0.0 mm 0.79 in20.1 mm
10:05 AM 72.4°F22.4°C -35.1°F-37.3°C 0% 2.0 mph SSW3.2 kmh SSW 6.0 mph9.7 kmh 29.96 in1014.6 mb 0.00 in0.0 mm 0.00 in0.0 mm 0.79 in20.1 mm
10:10 AM 72.9°F22.7°C -35.1°F-37.3°C 0% 3.0 mph SSW4.8 kmh SSW 6.0 mph9.7 kmh 29.96 in1014.6 mb 0.00 in0.0 mm 0.00 in0.0 mm 0.79 in20.1 mm
10:15 AM 73.3°F22.9°C -35.1°F-37.3°C 0% 2.0 mph SSW3.2 kmh SSW 5.0 mph8.0 kmh 29.96 in1014.6 mb 0.00 in0.0 mm 0.00 in0.0 mm 0.79 in20.1 mm
10:20 AM 73.8°F23.2°C -35.1°F-37.3°C 0% 2.0 mph SW3.2 kmh SW 5.0 mph8.0 kmh 29.96 in1014.6 mb 0.00 in0.0 mm 0.00 in0.0 mm 0.79 in20.1 mm
10:25 AM 74.0°F23.3°C -35.1°F-37.3°C 0% 2.0 mph SW3.2 kmh SW 7.0 mph11.3 kmh 29.96 in1014.6 mb 0.00 in0.0 mm 0.00 in0.0 mm 0.79 in20.1 mm
10:30 AM 74.0°F23.3°C -35.1°F-37.3°C 0% 2.0 mph SW3.2 kmh SW 7.0 mph11.3 kmh 29.96 in1014.6 mb 0.00 in0.0 mm 0.00 in0.0 mm 0.79 in20.1 mm
10:35 AM 74.4°F23.6°C -35.1°F-37.3°C 0% 2.0 mph SW3.2 kmh SW 5.0 mph8.0 kmh 29.96 in1014.6 mb 0.00 in0.0 mm 0.00 in0.0 mm 0.79 in20.1 mm
10:40 AM 74.9°F23.8°C -35.1°F-37.3°C 0% 3.0 mph SW4.8 kmh SW 6.0 mph9.7 kmh 29.96 in1014.6 mb 0.00 in0.0 mm 0.00 in0.0 mm 0.79 in20.1 mm
10:45 AM 75.3°F24.1°C -35.1°F-37.3°C 0% 3.0 mph SW4.8 kmh SW 8.0 mph12.9 kmh 29.96 in1014.6 mb 0.00 in0.0 mm 0.00 in0.0 mm 0.79 in20.1 mm
10:50 AM 75.7°F24.3°C -35.1°F-37.3°C 0% 4.0 mph SSW6.4 kmh SSW 9.0 mph14.5 kmh 29.96 in1014.6 mb 0.00 in0.0 mm 0.00 in0.0 mm 0.79 in20.1 mm
10:55 AM 76.4°F24.7°C -35.1°F-37.3°C 0% 4.0 mph SW6.4 kmh SW 9.0 mph14.5 kmh 29.96 in1014.6 mb 0.00 in0.0 mm 0.00 in0.0 mm 0.79 in20.1 mm
11:00 AM 76.6°F24.8°C 7.8°F-13.4°C 7% 4.0 mph SW6.4 kmh SW 8.0 mph12.9 kmh 29.96 in1014.6 mb 0.00 in0.0 mm 0.00 in0.0 mm 0.79 in20.1 mm
11:05 AM 76.8°F24.9°C 13.6°F-10.2°C 9% 4.0 mph SW6.4 kmh SW 8.0 mph12.9 kmh 29.96 in1014.6 mb 0.00 in0.0 mm 0.00 in0.0 mm 0.79 in20.1 mm
11:10 AM 77.0°F25.0°C 31.6°F-0.2°C 19% 4.0 mph SW6.4 kmh SW 8.0 mph12.9 kmh 29.96 in1014.6 mb 0.00 in0.0 mm 0.00 in0.0 mm 0.79 in20.1 mm
11:15 AM 77.1°F25.1°C 28.9°F-1.7°C 17% 4.0 mph SW6.4 kmh SW 8.0 mph12.9 kmh 29.96 in1014.6 mb 0.00 in0.0 mm 0.00 in0.0 mm 0.79 in20.1 mm
11:20 AM 77.5°F25.3°C 35.6°F2.0°C 22% 4.0 mph WSW6.4 kmh WSW 8.0 mph12.9 kmh 29.96 in1014.6 mb 0.00 in0.0 mm 0.00 in0.0 mm 0.79 in20.1 mm
11:25 AM 77.9°F25.5°C 36.0°F2.2°C 22% 4.0 mph WSW6.4 kmh WSW 10.0 mph16.1 kmh 29.96 in1014.6 mb 0.00 in0.0 mm 0.00 in0.0 mm 0.79 in20.1 mm
11:30 AM 78.7°F25.9°C 39.9°F4.4°C 25% 4.0 mph WSW6.4 kmh WSW 10.0 mph16.1 kmh 29.96 in1014.6 mb 0.00 in0.0 mm 0.00 in0.0 mm 0.79 in20.1 mm
11:35 AM 78.9°F26.1°C 51.1°F10.6°C 38% 4.0 mph W6.4 kmh W 9.0 mph14.5 kmh 29.96 in1014.6 mb 0.00 in0.0 mm 0.00 in0.0 mm 0.79 in20.1 mm
11:40 AM 78.9°F26.1°C 47.3°F8.5°C 33% 4.0 mph WSW6.4 kmh WSW 9.0 mph14.5 kmh 29.96 in1014.6 mb 0.00 in0.0 mm 0.00 in0.0 mm 0.79 in20.1 mm
11:45 AM 79.3°F26.3°C 43.4°F6.3°C 28% 4.0 mph WSW6.4 kmh WSW 11.0 mph17.7 kmh 29.96 in1014.6 mb 0.00 in0.0 mm 0.00 in0.0 mm 0.79 in20.1 mm
11:50 AM 80.1°F26.7°C 48.4°F9.1°C 33% 4.0 mph WSW6.4 kmh WSW 11.0 mph17.7 kmh 29.96 in1014.6 mb 0.00 in0.0 mm 0.00 in0.0 mm 0.79 in20.1 mm
11:55 AM 80.6°F27.0°C 61.3°F16.3°C 52% 5.0 mph W8.0 kmh W 13.0 mph20.9 kmh 29.96 in1014.6 mb 0.00 in0.0 mm 0.00 in0.0 mm 0.79 in20.1 mm
12:00 PM 80.4°F26.9°C 59.5°F15.3°C 49% 5.0 mph W8.0 kmh W 13.0 mph20.9 kmh 29.96 in1014.6 mb 0.00 in0.0 mm 0.00 in0.0 mm 0.79 in20.1 mm
12:05 PM 80.5°F26.9°C 54.6°F12.6°C 41% 4.0 mph W6.4 kmh W 12.0 mph19.3 kmh 29.96 in1014.6 mb 0.00 in0.0 mm 0.00 in0.0 mm 0.79 in20.1 mm
12:10 PM 80.4°F26.9°C 60.6°F15.9°C 51% 4.0 mph W6.4 kmh W 11.0 mph17.7 kmh 29.96 in1014.6 mb 0.00 in0.0 mm 0.00 in0.0 mm 0.79 in20.1 mm
12:15 PM 80.4°F26.9°C 56.5°F13.6°C 44% 4.0 mph W6.4 kmh W 11.0 mph17.7 kmh 29.96 in1014.6 mb 0.00 in0.0 mm 0.00 in0.0 mm 0.79 in20.1 mm
12:20 PM 81.0°F27.2°C 61.7°F16.5°C 52% 4.0 mph W6.4 kmh W 10.0 mph16.1 kmh 29.96 in1014.6 mb 0.00 in0.0 mm 0.00 in0.0 mm 0.79 in20.1 mm
12:25 PM 80.9°F27.2°C 61.1°F16.2°C 51% 4.0 mph W6.4 kmh W 13.0 mph20.9 kmh 29.96 in1014.6 mb 0.00 in0.0 mm 0.00 in0.0 mm 0.79 in20.1 mm
12:30 PM 80.9°F27.2°C 61.1°F16.2°C 51% 4.0 mph W6.4 kmh W 13.0 mph20.9 kmh 29.96 in1014.6 mb 0.00 in0.0 mm 0.00 in0.0 mm 0.79 in20.1 mm
12:35 PM 81.0°F27.2°C 61.2°F16.2°C 51% 5.0 mph WSW8.0 kmh WSW 10.0 mph16.1 kmh 29.96 in1014.6 mb 0.00 in0.0 mm 0.00 in0.0 mm 0.79 in20.1 mm
12:40 PM 81.6°F27.6°C 61.2°F16.2°C 50% 5.0 mph WSW8.0 kmh WSW 11.0 mph17.7 kmh 29.96 in1014.6 mb 0.00 in0.0 mm 0.00 in0.0 mm 0.79 in20.1 mm
12:45 PM 81.8°F27.7°C 64.1°F17.8°C 55% 5.0 mph WSW8.0 kmh WSW 13.0 mph20.9 kmh 29.96 in1014.6 mb 0.00 in0.0 mm 0.00 in0.0 mm 0.79 in20.1 mm
12:50 PM 81.8°F27.7°C 64.6°F18.1°C 56% 5.0 mph WSW8.0 kmh WSW 13.0 mph20.9 kmh 29.96 in1014.6 mb 0.00 in0.0 mm 0.00 in0.0 mm 0.79 in20.1 mm
12:55 PM 82.2°F27.9°C 63.4°F17.4°C 53% 5.0 mph WSW8.0 kmh WSW 11.0 mph17.7 kmh 29.96 in1014.6 mb 0.00 in0.0 mm 0.00 in0.0 mm 0.79 in20.1 mm
01:00 PM 82.7°F28.2°C 66.9°F19.4°C 59% 4.0 mph WSW6.4 kmh WSW 11.0 mph17.7 kmh 29.96 in1014.6 mb 0.00 in0.0 mm 0.00 in0.0 mm 0.79 in20.1 mm
01:05 PM 82.4°F28.0°C 67.6°F19.8°C 61% 5.0 mph W8.0 kmh W 10.0 mph16.1 kmh 29.95 in1014.2 mb 0.00 in0.0 mm 0.00 in0.0 mm 0.79 in20.1 mm
01:10 PM 82.5°F28.1°C 67.7°F19.8°C 61% 5.0 mph WSW8.0 kmh WSW 14.0 mph22.5 kmh 29.95 in1014.2 mb 0.00 in0.0 mm 0.00 in0.0 mm 0.79 in20.1 mm
01:15 PM 82.2°F27.9°C 67.4°F19.7°C 61% 6.0 mph WSW9.7 kmh WSW 14.0 mph22.5 kmh 29.95 in1014.2 mb 0.00 in0.0 mm 0.00 in0.0 mm 0.79 in20.1 mm
01:20 PM 81.8°F27.7°C 66.6°F19.2°C 60% 5.0 mph WSW8.0 kmh WSW 12.0 mph19.3 kmh 29.95 in1014.2 mb 0.00 in0.0 mm 0.00 in0.0 mm 0.79 in20.1 mm
01:25 PM 82.1°F27.8°C 65.4°F18.6°C 57% 4.0 mph W6.4 kmh W 9.0 mph14.5 kmh 29.95 in1014.2 mb 0.00 in0.0 mm 0.00 in0.0 mm 0.79 in20.1 mm
01:30 PM 83.0°F28.3°C 68.2°F20.1°C 61% 5.0 mph WSW8.0 kmh WSW 11.0 mph17.7 kmh 29.94 in1013.9 mb 0.00 in0.0 mm 0.00 in0.0 mm 0.79 in20.1 mm
01:35 PM 83.0°F28.3°C 69.6°F20.9°C 64% 5.0 mph WSW8.0 kmh WSW 11.0 mph17.7 kmh 29.95 in1014.2 mb 0.00 in0.0 mm 0.00 in0.0 mm 0.79 in20.1 mm
01:40 PM 82.6°F28.1°C 68.7°F20.4°C 63% 5.0 mph W8.0 kmh W 11.0 mph17.7 kmh 29.94 in1013.9 mb 0.00 in0.0 mm 0.00 in0.0 mm 0.79 in20.1 mm
01:45 PM 82.5°F28.1°C 68.6°F20.3°C 63% 5.0 mph W8.0 kmh W 11.0 mph17.7 kmh 29.95 in1014.2 mb 0.00 in0.0 mm 0.00 in0.0 mm 0.79 in20.1 mm
01:50 PM 82.8°F28.2°C 67.5°F19.7°C 60% 4.0 mph W6.4 kmh W 11.0 mph17.7 kmh 29.94 in1013.9 mb 0.00 in0.0 mm 0.00 in0.0 mm 0.79 in20.1 mm
01:55 PM 82.7°F28.2°C 68.8°F20.4°C 63% 4.0 mph W6.4 kmh W 10.0 mph16.1 kmh 29.94 in1013.9 mb 0.00 in0.0 mm 0.00 in0.0 mm 0.79 in20.1 mm
02:00 PM 82.1°F27.8°C 68.7°F20.4°C 64% 5.0 mph W8.0 kmh W 10.0 mph16.1 kmh 29.94 in1013.9 mb 0.00 in0.0 mm 0.00 in0.0 mm 0.79 in20.1 mm
02:05 PM 82.2°F27.9°C 67.4°F19.7°C 61% 4.0 mph W6.4 kmh W 9.0 mph14.5 kmh 29.94 in1013.9 mb 0.00 in0.0 mm 0.00 in0.0 mm 0.79 in20.1 mm
02:10 PM 82.7°F28.2°C 68.8°F20.4°C 63% 4.0 mph W6.4 kmh W 11.0 mph17.7 kmh 29.94 in1013.9 mb 0.00 in0.0 mm 0.00 in0.0 mm 0.79 in20.1 mm
02:15 PM 82.9°F28.3°C 69.5°F20.8°C 64% 5.0 mph W8.0 kmh W 12.0 mph19.3 kmh 29.94 in1013.9 mb 0.00 in0.0 mm 0.00 in0.0 mm 0.79 in20.1 mm
02:20 PM 82.9°F28.3°C 69.9°F21.1°C 65% 4.0 mph W6.4 kmh W 12.0 mph19.3 kmh 29.93 in1013.5 mb 0.00 in0.0 mm 0.00 in0.0 mm 0.79 in20.1 mm
02:25 PM 82.8°F28.2°C 69.4°F20.8°C 64% 4.0 mph W6.4 kmh W 12.0 mph19.3 kmh 29.93 in1013.5 mb 0.00 in0.0 mm 0.00 in0.0 mm 0.79 in20.1 mm
02:30 PM 82.8°F28.2°C 69.4°F20.8°C 64% 5.0 mph WNW8.0 kmh WNW 12.0 mph19.3 kmh 29.93 in1013.5 mb 0.00 in0.0 mm 0.00 in0.0 mm 0.79 in20.1 mm
02:35 PM 83.4°F28.6°C 69.9°F21.1°C 64% 6.0 mph W9.7 kmh W 13.0 mph20.9 kmh 29.93 in1013.5 mb 0.00 in0.0 mm 0.00 in0.0 mm 0.79 in20.1 mm
02:40 PM 83.8°F28.8°C 70.8°F21.6°C 65% 6.0 mph WSW9.7 kmh WSW 13.0 mph20.9 kmh 29.93 in1013.5 mb 0.00 in0.0 mm 0.00 in0.0 mm 0.79 in20.1 mm
02:45 PM 83.0°F28.3°C 70.0°F21.1°C 65% 6.0 mph WSW9.7 kmh WSW 13.0 mph20.9 kmh 29.93 in1013.5 mb 0.00 in0.0 mm 0.00 in0.0 mm 0.79 in20.1 mm
02:50 PM 82.6°F28.1°C 69.6°F20.9°C 65% 6.0 mph WSW9.7 kmh WSW 12.0 mph19.3 kmh 29.93 in1013.5 mb 0.00 in0.0 mm 0.00 in0.0 mm 0.79 in20.1 mm
02:55 PM 82.5°F28.1°C 69.1°F20.6°C 64% 5.0 mph WSW8.0 kmh WSW 12.0 mph19.3 kmh 29.93 in1013.5 mb 0.00 in0.0 mm 0.00 in0.0 mm 0.79 in20.1 mm
03:00 PM 83.1°F28.4°C 70.1°F21.2°C 65% 5.0 mph WSW8.0 kmh WSW 11.0 mph17.7 kmh 29.93 in1013.5 mb 0.00 in0.0 mm 0.00 in0.0 mm 0.79 in20.1 mm
03:05 PM 83.7°F28.7°C 70.7°F21.5°C 65% 5.0 mph WSW8.0 kmh WSW 11.0 mph17.7 kmh 29.92 in1013.2 mb 0.00 in0.0 mm 0.00 in0.0 mm 0.79 in20.1 mm
03:10 PM 83.9°F28.8°C 70.9°F21.6°C 65% 5.0 mph WSW8.0 kmh WSW 12.0 mph19.3 kmh 29.93 in1013.5 mb 0.00 in0.0 mm 0.00 in0.0 mm 0.79 in20.1 mm
03:15 PM 83.8°F28.8°C 70.8°F21.6°C 65% 4.0 mph WSW6.4 kmh WSW 12.0 mph19.3 kmh 29.92 in1013.2 mb 0.00 in0.0 mm 0.00 in0.0 mm 0.79 in20.1 mm
03:20 PM 83.3°F28.5°C 70.3°F21.3°C 65% 4.0 mph W6.4 kmh W 10.0 mph16.1 kmh 29.92 in1013.2 mb 0.00 in0.0 mm 0.00 in0.0 mm 0.79 in20.1 mm
03:25 PM 83.0°F28.3°C 70.0°F21.1°C 65% 4.0 mph WSW6.4 kmh WSW 12.0 mph19.3 kmh 29.92 in1013.2 mb 0.00 in0.0 mm 0.00 in0.0 mm 0.79 in20.1 mm
03:30 PM 82.6°F28.1°C 69.6°F20.9°C 65% 6.0 mph WSW9.7 kmh WSW 12.0 mph19.3 kmh 29.92 in1013.2 mb 0.00 in0.0 mm 0.00 in0.0 mm 0.79 in20.1 mm
03:35 PM 82.5°F28.1°C 69.5°F20.8°C 65% 5.0 mph WSW8.0 kmh WSW 11.0 mph17.7 kmh 29.92 in1013.2 mb 0.00 in0.0 mm 0.00 in0.0 mm 0.79 in20.1 mm
03:40 PM 82.7°F28.2°C 69.3°F20.7°C 64% 3.0 mph WSW4.8 kmh WSW 6.0 mph9.7 kmh 29.92 in1013.2 mb 0.00 in0.0 mm 0.00 in0.0 mm 0.79 in20.1 mm
03:45 PM 82.7°F28.2°C 69.7°F20.9°C 65% 2.0 mph WSW3.2 kmh WSW 5.0 mph8.0 kmh 29.92 in1013.2 mb 0.00 in0.0 mm 0.00 in0.0 mm 0.79 in20.1 mm
03:50 PM 82.5°F28.1°C 69.5°F20.8°C 65% 3.0 mph W4.8 kmh W 7.0 mph11.3 kmh 29.92 in1013.2 mb 0.00 in0.0 mm 0.00 in0.0 mm 0.79 in20.1 mm
03:55 PM 82.0°F27.8°C 69.1°F20.6°C 65% 4.0 mph W6.4 kmh W 10.0 mph16.1 kmh 29.92 in1013.2 mb 0.00 in0.0 mm 0.00 in0.0 mm 0.79 in20.1 mm
04:00 PM 81.4°F27.4°C 68.5°F20.3°C 65% 5.0 mph WSW8.0 kmh WSW 14.0 mph22.5 kmh 29.92 in1013.2 mb 0.00 in0.0 mm 0.00 in0.0 mm 0.79 in20.1 mm
04:05 PM 81.2°F27.3°C 68.3°F20.2°C 65% 6.0 mph WSW9.7 kmh WSW 14.0 mph22.5 kmh 29.92 in1013.2 mb 0.00 in0.0 mm 0.00 in0.0 mm 0.79 in20.1 mm
04:10 PM 81.8°F27.7°C 68.9°F20.5°C 65% 6.0 mph WSW9.7 kmh WSW 14.0 mph22.5 kmh 29.92 in1013.2 mb 0.00 in0.0 mm 0.00 in0.0 mm 0.79 in20.1 mm
04:15 PM 82.1°F27.8°C 69.6°F20.9°C 66% 6.0 mph WSW9.7 kmh WSW 11.0 mph17.7 kmh 29.92 in1013.2 mb 0.00 in0.0 mm 0.00 in0.0 mm 0.79 in20.1 mm
04:20 PM 82.4°F28.0°C 69.9°F21.1°C 66% 6.0 mph WSW9.7 kmh WSW 13.0 mph20.9 kmh 29.92 in1013.2 mb 0.00 in0.0 mm 0.00 in0.0 mm 0.79 in20.1 mm
04:25 PM 82.8°F28.2°C 70.3°F21.3°C 66% 6.0 mph WSW9.7 kmh WSW 15.0 mph24.1 kmh 29.92 in1013.2 mb 0.00 in0.0 mm 0.00 in0.0 mm 0.79 in20.1 mm
04:30 PM 82.8°F28.2°C 70.3°F21.3°C 66% 6.0 mph WSW9.7 kmh WSW 15.0 mph24.1 kmh 29.92 in1013.2 mb 0.00 in0.0 mm 0.00 in0.0 mm 0.79 in20.1 mm
04:35 PM 82.9°F28.3°C 69.9°F21.1°C 65% 6.0 mph WSW9.7 kmh WSW 15.0 mph24.1 kmh 29.92 in1013.2 mb 0.00 in0.0 mm 0.00 in0.0 mm 0.79 in20.1 mm
04:40 PM 82.7°F28.2°C 69.7°F20.9°C 65% 6.0 mph WSW9.7 kmh WSW 12.0 mph19.3 kmh 29.92 in1013.2 mb 0.00 in0.0 mm 0.00 in0.0 mm 0.79 in20.1 mm
04:45 PM 82.0°F27.8°C 69.5°F20.8°C 66% 5.0 mph WSW8.0 kmh WSW 12.0 mph19.3 kmh 29.92 in1013.2 mb 0.00 in0.0 mm 0.00 in0.0 mm 0.79 in20.1 mm
04:50 PM 82.0°F27.8°C 69.5°F20.8°C 66% 5.0 mph WSW8.0 kmh WSW 12.0 mph19.3 kmh 29.92 in1013.2 mb 0.00 in0.0 mm 0.00 in0.0 mm 0.79 in20.1 mm
04:55 PM 82.0°F27.8°C 69.5°F20.8°C 66% 4.0 mph W6.4 kmh W 10.0 mph16.1 kmh 29.92 in1013.2 mb 0.00 in0.0 mm 0.00 in0.0 mm 0.79 in20.1 mm
05:00 PM 82.4°F28.0°C 69.9°F21.1°C 66% 4.0 mph W6.4 kmh W 9.0 mph14.5 kmh 29.92 in1013.2 mb 0.00 in0.0 mm 0.00 in0.0 mm 0.79 in20.1 mm
05:05 PM 83.0°F28.3°C 70.5°F21.4°C 66% 4.0 mph W6.4 kmh W 8.0 mph12.9 kmh 29.92 in1013.2 mb 0.00 in0.0 mm 0.00 in0.0 mm 0.79 in20.1 mm
05:10 PM 83.4°F28.6°C 70.4°F21.3°C 65% 4.0 mph WSW6.4 kmh WSW 13.0 mph20.9 kmh 29.92 in1013.2 mb 0.00 in0.0 mm 0.00 in0.0 mm 0.79 in20.1 mm
05:15 PM 82.8°F28.2°C 69.8°F21.0°C 65% 5.0 mph SW8.0 kmh SW 13.0 mph20.9 kmh 29.92 in1013.2 mb 0.00 in0.0 mm 0.00 in0.0 mm 0.79 in20.1 mm
05:20 PM 81.7°F27.6°C 69.2°F20.7°C 66% 5.0 mph SW8.0 kmh SW 10.0 mph16.1 kmh 29.92 in1013.2 mb 0.00 in0.0 mm 0.00 in0.0 mm 0.79 in20.1 mm
05:25 PM 81.4°F27.4°C 68.9°F20.5°C 66% 5.0 mph WSW8.0 kmh WSW 9.0 mph14.5 kmh 29.92 in1013.2 mb 0.00 in0.0 mm 0.00 in0.0 mm 0.79 in20.1 mm
05:30 PM 81.5°F27.5°C 69.0°F20.6°C 66% 4.0 mph W6.4 kmh W 10.0 mph16.1 kmh 29.92 in1013.2 mb 0.00 in0.0 mm 0.00 in0.0 mm 0.79 in20.1 mm
05:35 PM 81.5°F27.5°C 69.0°F20.6°C 66% 6.0 mph WSW9.7 kmh WSW 14.0 mph22.5 kmh 29.92 in1013.2 mb 0.00 in0.0 mm 0.00 in0.0 mm 0.79 in20.1 mm
05:40 PM 81.6°F27.6°C 69.1°F20.6°C 66% 5.0 mph WSW8.0 kmh WSW 14.0 mph22.5 kmh 29.93 in1013.5 mb 0.00 in0.0 mm 0.00 in0.0 mm 0.79 in20.1 mm
05:45 PM 81.6°F27.6°C 69.1°F20.6°C 66% 5.0 mph WSW8.0 kmh WSW 12.0 mph19.3 kmh 29.93 in1013.5 mb 0.00 in0.0 mm 0.00 in0.0 mm 0.79 in20.1 mm
05:50 PM 81.2°F27.3°C 68.8°F20.4°C 66% 5.0 mph WSW8.0 kmh WSW 12.0 mph19.3 kmh 29.93 in1013.5 mb 0.00 in0.0 mm 0.00 in0.0 mm 0.79 in20.1 mm
05:55 PM 81.0°F27.2°C 68.6°F20.3°C 66% 5.0 mph WSW8.0 kmh WSW 12.0 mph19.3 kmh 29.93 in1013.5 mb 0.00 in0.0 mm 0.00 in0.0 mm 0.79 in20.1 mm
06:00 PM 80.9°F27.2°C 68.5°F20.3°C 66% 5.0 mph WSW8.0 kmh WSW 12.0 mph19.3 kmh 29.93 in1013.5 mb 0.00 in0.0 mm 0.00 in0.0 mm 0.79 in20.1 mm
06:05 PM 80.7°F27.1°C 68.3°F20.2°C 66% 5.0 mph WSW8.0 kmh WSW 11.0 mph17.7 kmh 29.93 in1013.5 mb 0.00 in0.0 mm 0.00 in0.0 mm 0.79 in20.1 mm
06:10 PM 80.0°F26.7°C 67.6°F19.8°C 66% 5.0 mph WSW8.0 kmh WSW 14.0 mph22.5 kmh 29.93 in1013.5 mb 0.00 in0.0 mm 0.00 in0.0 mm 0.79 in20.1 mm
06:15 PM 79.3°F26.3°C 66.5°F19.2°C 65% 5.0 mph WSW8.0 kmh WSW 14.0 mph22.5 kmh 29.93 in1013.5 mb 0.00 in0.0 mm 0.00 in0.0 mm 0.79 in20.1 mm
06:20 PM 78.8°F26.0°C 66.0°F18.9°C 65% 4.0 mph WSW6.4 kmh WSW 11.0 mph17.7 kmh 29.94 in1013.9 mb 0.00 in0.0 mm 0.00 in0.0 mm 0.79 in20.1 mm
06:25 PM 78.4°F25.8°C 65.2°F18.4°C 64% 5.0 mph W8.0 kmh W 11.0 mph17.7 kmh 29.94 in1013.9 mb 0.00 in0.0 mm 0.00 in0.0 mm 0.79 in20.1 mm
06:30 PM 78.0°F25.6°C 65.3°F18.5°C 65% 5.0 mph W8.0 kmh W 11.0 mph17.7 kmh 29.94 in1013.9 mb 0.00 in0.0 mm 0.00 in0.0 mm 0.79 in20.1 mm
06:35 PM 77.6°F25.3°C 64.5°F18.1°C 64% 4.0 mph W6.4 kmh W 10.0 mph16.1 kmh 29.94 in1013.9 mb 0.00 in0.0 mm 0.00 in0.0 mm 0.79 in20.1 mm
06:40 PM 77.1°F25.1°C 63.5°F17.5°C 63% 4.0 mph W6.4 kmh W 11.0 mph17.7 kmh 29.95 in1014.2 mb 0.00 in0.0 mm 0.00 in0.0 mm 0.79 in20.1 mm
06:45 PM 76.8°F24.9°C 62.8°F17.1°C 62% 5.0 mph W8.0 kmh W 11.0 mph17.7 kmh 29.95 in1014.2 mb 0.00 in0.0 mm 0.00 in0.0 mm 0.79 in20.1 mm
06:50 PM 76.7°F24.8°C 62.2°F16.8°C 61% 4.0 mph W6.4 kmh W 11.0 mph17.7 kmh 29.95 in1014.2 mb 0.00 in0.0 mm 0.00 in0.0 mm 0.79 in20.1 mm
06:55 PM 76.5°F24.7°C 62.0°F16.7°C 61% 3.0 mph WSW4.8 kmh WSW 9.0 mph14.5 kmh 29.95 in1014.2 mb 0.00 in0.0 mm 0.00 in0.0 mm 0.79 in20.1 mm
07:00 PM 76.2°F24.6°C 61.3°F16.3°C 60% 3.0 mph W4.8 kmh W 11.0 mph17.7 kmh 29.95 in1014.2 mb 0.00 in0.0 mm 0.00 in0.0 mm 0.79 in20.1 mm
07:05 PM 75.9°F24.4°C 60.1°F15.6°C 58% 4.0 mph NW6.4 kmh NW 11.0 mph17.7 kmh 29.95 in1014.2 mb 0.00 in0.0 mm 0.00 in0.0 mm 0.79 in20.1 mm
07:10 PM 75.5°F24.2°C 59.2°F15.1°C 57% 5.0 mph NW8.0 kmh NW 11.0 mph17.7 kmh 29.96 in1014.6 mb 0.00 in0.0 mm 0.00 in0.0 mm 0.79 in20.1 mm
07:15 PM 74.7°F23.7°C 57.5°F14.2°C 55% 6.0 mph NW9.7 kmh NW 11.0 mph17.7 kmh 29.96 in1014.6 mb 0.00 in0.0 mm 0.00 in0.0 mm 0.79 in20.1 mm
07:20 PM 74.1°F23.4°C 55.3°F12.9°C 52% 5.0 mph NW8.0 kmh NW 11.0 mph17.7 kmh 29.97 in1014.9 mb 0.00 in0.0 mm 0.00 in0.0 mm 0.79 in20.1 mm
07:25 PM 73.5°F23.1°C 53.7°F12.1°C 50% 4.0 mph NW6.4 kmh NW 8.0 mph12.9 kmh 29.97 in1014.9 mb 0.00 in0.0 mm 0.00 in0.0 mm 0.79 in20.1 mm
07:30 PM 72.9°F22.7°C 51.5°F10.8°C 47% 4.0 mph NW6.4 kmh NW 9.0 mph14.5 kmh 29.98 in1015.2 mb 0.00 in0.0 mm 0.00 in0.0 mm 0.79 in20.1 mm
07:35 PM 72.1°F22.3°C 51.3°F10.7°C 48% 5.0 mph NW8.0 kmh NW 9.0 mph14.5 kmh 29.98 in1015.2 mb 0.00 in0.0 mm 0.00 in0.0 mm 0.79 in20.1 mm
07:40 PM 71.4°F21.9°C 48.9°F9.4°C 45% 5.0 mph NW8.0 kmh NW 9.0 mph14.5 kmh 29.98 in1015.2 mb 0.00 in0.0 mm 0.00 in0.0 mm 0.79 in20.1 mm
07:45 PM 70.6°F21.4°C 47.0°F8.3°C 43% 5.0 mph NW8.0 kmh NW 11.0 mph17.7 kmh 29.99 in1015.6 mb 0.00 in0.0 mm 0.00 in0.0 mm 0.79 in20.1 mm
07:50 PM 69.9°F21.1°C 44.5°F6.9°C 40% 5.0 mph NW8.0 kmh NW 12.0 mph19.3 kmh 29.99 in1015.6 mb 0.00 in0.0 mm 0.00 in0.0 mm 0.79 in20.1 mm
07:55 PM 69.4°F20.8°C 42.0°F5.6°C 37% 4.0 mph NW6.4 kmh NW 12.0 mph19.3 kmh 29.99 in1015.6 mb 0.00 in0.0 mm 0.00 in0.0 mm 0.79 in20.1 mm
08:00 PM 68.9°F20.5°C 40.1°F4.5°C 35% 3.0 mph NW4.8 kmh NW 9.0 mph14.5 kmh 29.99 in1015.6 mb 0.00 in0.0 mm 0.00 in0.0 mm 0.79 in20.1 mm
08:05 PM 68.5°F20.3°C 36.7°F2.6°C 31% 4.0 mph NW6.4 kmh NW 8.0 mph12.9 kmh 29.99 in1015.6 mb 0.00 in0.0 mm 0.00 in0.0 mm 0.79 in20.1 mm
08:10 PM 68.1°F20.1°C 36.3°F2.4°C 31% 5.0 mph NW8.0 kmh NW 12.0 mph19.3 kmh 30.00 in1015.9 mb 0.00 in0.0 mm 0.00 in0.0 mm 0.79 in20.1 mm
08:15 PM 67.8°F19.9°C 36.0°F2.2°C 31% 6.0 mph NW9.7 kmh NW 12.0 mph19.3 kmh 30.00 in1015.9 mb 0.00 in0.0 mm 0.00 in0.0 mm 0.79 in20.1 mm
08:20 PM 67.5°F19.7°C 34.1°F1.2°C 29% 5.0 mph NW8.0 kmh NW 10.0 mph16.1 kmh 30.00 in1015.9 mb 0.00 in0.0 mm 0.00 in0.0 mm 0.79 in20.1 mm
08:25 PM 67.3°F19.6°C 33.1°F0.6°C 28% 5.0 mph NW8.0 kmh NW 10.0 mph16.1 kmh 30.00 in1015.9 mb 0.00 in0.0 mm 0.00 in0.0 mm 0.79 in20.1 mm
08:30 PM 67.1°F19.5°C 32.9°F0.5°C 28% 5.0 mph NW8.0 kmh NW 11.0 mph17.7 kmh 30.00 in1015.9 mb 0.00 in0.0 mm 0.00 in0.0 mm 0.79 in20.1 mm
08:35 PM 67.1°F19.5°C 32.9°F0.5°C 28% 5.0 mph NW8.0 kmh NW 11.0 mph17.7 kmh 30.00 in1015.9 mb 0.00 in0.0 mm 0.00 in0.0 mm 0.79 in20.1 mm
08:40 PM 66.9°F19.4°C 31.8°F-0.1°C 27% 4.0 mph NW6.4 kmh NW 9.0 mph14.5 kmh 30.00 in1015.9 mb 0.00 in0.0 mm 0.00 in0.0 mm 0.79 in20.1 mm
08:45 PM 66.8°F19.3°C 32.6°F0.3°C 28% 4.0 mph NW6.4 kmh NW 10.0 mph16.1 kmh 30.00 in1015.9 mb 0.00 in0.0 mm 0.00 in0.0 mm 0.79 in20.1 mm
08:50 PM 66.7°F19.3°C 32.5°F0.3°C 28% 4.0 mph NW6.4 kmh NW 10.0 mph16.1 kmh 30.00 in1015.9 mb 0.00 in0.0 mm 0.00 in0.0 mm 0.79 in20.1 mm
08:55 PM 66.7°F19.3°C 30.7°F-0.7°C 26% 4.0 mph NW6.4 kmh NW 9.0 mph14.5 kmh 30.00 in1015.9 mb 0.00 in0.0 mm 0.00 in0.0 mm 0.79 in20.1 mm
09:00 PM 66.6°F19.2°C 28.6°F-1.9°C 24% 3.0 mph NW4.8 kmh NW 7.0 mph11.3 kmh 30.00 in1015.9 mb 0.00 in0.0 mm 0.00 in0.0 mm 0.79 in20.1 mm
09:05 PM 66.4°F19.1°C 28.5°F-1.9°C 24% 4.0 mph NW6.4 kmh NW 10.0 mph16.1 kmh 30.00 in1015.9 mb 0.00 in0.0 mm 0.00 in0.0 mm 0.79 in20.1 mm
09:10 PM 66.3°F19.1°C 28.4°F-2.0°C 24% 4.0 mph NW6.4 kmh NW 10.0 mph16.1 kmh 30.01 in1016.3 mb 0.00 in0.0 mm 0.00 in0.0 mm 0.79 in20.1 mm
09:15 PM 66.1°F18.9°C 27.2°F-2.7°C 23% 4.0 mph NW6.4 kmh NW 9.0 mph14.5 kmh 30.01 in1016.3 mb 0.00 in0.0 mm 0.00 in0.0 mm 0.79 in20.1 mm
09:20 PM 65.9°F18.8°C 27.0°F-2.8°C 23% 4.0 mph NW6.4 kmh NW 9.0 mph14.5 kmh 30.01 in1016.3 mb 0.00 in0.0 mm 0.00 in0.0 mm 0.79 in20.1 mm
09:25 PM 65.8°F18.8°C 24.7°F-4.1°C 21% 4.0 mph NW6.4 kmh NW 10.0 mph16.1 kmh 30.01 in1016.3 mb 0.00 in0.0 mm 0.00 in0.0 mm 0.79 in20.1 mm
09:30 PM 65.7°F18.7°C 23.5°F-4.7°C 20% 4.0 mph NW6.4 kmh NW 10.0 mph16.1 kmh 30.01 in1016.3 mb 0.00 in0.0 mm 0.00 in0.0 mm 0.79 in20.1 mm
09:35 PM 65.6°F18.7°C 23.4°F-4.8°C 20% 3.0 mph NW4.8 kmh NW 8.0 mph12.9 kmh 30.02 in1016.6 mb 0.00 in0.0 mm 0.00 in0.0 mm 0.79 in20.1 mm
09:40 PM 65.4°F18.6°C 22.0°F-5.6°C 19% 3.0 mph NW4.8 kmh NW 7.0 mph11.3 kmh 30.02 in1016.6 mb 0.00 in0.0 mm 0.00 in0.0 mm 0.79 in20.1 mm
09:45 PM 65.3°F18.5°C 21.9°F-5.6°C 19% 2.0 mph WNW3.2 kmh WNW 7.0 mph11.3 kmh 30.02 in1016.6 mb 0.00 in0.0 mm 0.00 in0.0 mm 0.79 in20.1 mm
09:50 PM 65.1°F18.4°C 20.5°F-6.4°C 18% 2.0 mph NW3.2 kmh NW 8.0 mph12.9 kmh 30.02 in1016.6 mb 0.00 in0.0 mm 0.00 in0.0 mm 0.79 in20.1 mm
09:55 PM 64.9°F18.3°C 19.0°F-7.2°C 17% 3.0 mph NW4.8 kmh NW 8.0 mph12.9 kmh 30.02 in1016.6 mb 0.00 in0.0 mm 0.00 in0.0 mm 0.79 in20.1 mm
10:00 PM 64.6°F18.1°C 15.8°F-9.0°C 15% 3.0 mph NW4.8 kmh NW 7.0 mph11.3 kmh 30.02 in1016.6 mb 0.00 in0.0 mm 0.00 in0.0 mm 0.79 in20.1 mm
10:05 PM 64.5°F18.1°C 14.2°F-9.9°C 14% 2.0 mph NW3.2 kmh NW 7.0 mph11.3 kmh 30.02 in1016.6 mb 0.00 in0.0 mm 0.00 in0.0 mm 0.79 in20.1 mm
10:10 PM 64.3°F17.9°C 8.6°F-13.0°C 11% 2.0 mph NW3.2 kmh NW 4.0 mph6.4 kmh 30.02 in1016.6 mb 0.00 in0.0 mm 0.00 in0.0 mm 0.79 in20.1 mm
10:15 PM 64.1°F17.8°C 8.4°F-13.1°C 11% 1.0 mph NW1.6 kmh NW 4.0 mph6.4 kmh 30.02 in1016.6 mb 0.00 in0.0 mm 0.00 in0.0 mm 0.79 in20.1 mm
10:20 PM 64.0°F17.8°C -1.5°F-18.6°C 7% 1.0 mph NW1.6 kmh NW 5.0 mph8.0 kmh 30.02 in1016.6 mb 0.00 in0.0 mm 0.00 in0.0 mm 0.79 in20.1 mm
10:25 PM 63.9°F17.7°C -18.7°F-28.2°C 3% 2.0 mph NW3.2 kmh NW 6.0 mph9.7 kmh 30.02 in1016.6 mb 0.00 in0.0 mm 0.00 in0.0 mm 0.79 in20.1 mm
10:30 PM 63.8°F17.7°C -39.0°F-39.4°C 1% 2.0 mph NW3.2 kmh NW 6.0 mph9.7 kmh 30.02 in1016.6 mb 0.00 in0.0 mm 0.00 in0.0 mm 0.79 in20.1 mm
10:35 PM 63.6°F17.6°C -26.6°F-32.6°C 2% 3.0 mph WNW4.8 kmh WNW 6.0 mph9.7 kmh 30.02 in1016.6 mb 0.00 in0.0 mm 0.00 in0.0 mm 0.79 in20.1 mm
10:40 PM 63.4°F17.4°C -39.2°F-39.6°C 1% 3.0 mph WNW4.8 kmh WNW 7.0 mph11.3 kmh 30.02 in1016.6 mb 0.00 in0.0 mm 0.00 in0.0 mm 0.79 in20.1 mm
10:45 PM 63.2°F17.3°C -39.3°F-39.6°C 0% 3.0 mph NW4.8 kmh NW 7.0 mph11.3 kmh 30.02 in1016.6 mb 0.00 in0.0 mm 0.00 in0.0 mm 0.79 in20.1 mm
10:50 PM 63.1°F17.3°C -39.3°F-39.6°C 0% 2.0 mph NW3.2 kmh NW 5.0 mph8.0 kmh 30.02 in1016.6 mb 0.00 in0.0 mm 0.00 in0.0 mm 0.79 in20.1 mm
10:55 PM 63.0°F17.2°C -39.3°F-39.6°C 0% 2.0 mph NW3.2 kmh NW 4.0 mph6.4 kmh 30.02 in1016.6 mb 0.00 in0.0 mm 0.00 in0.0 mm 0.79 in20.1 mm
11:00 PM 62.9°F17.2°C -39.3°F-39.6°C 0% 2.0 mph NW3.2 kmh NW 5.0 mph8.0 kmh 30.02 in1016.6 mb 0.00 in0.0 mm 0.00 in0.0 mm 0.79 in20.1 mm
11:05 PM 62.9°F17.2°C -39.3°F-39.6°C 0% 3.0 mph NW4.8 kmh NW 6.0 mph9.7 kmh 30.02 in1016.6 mb 0.00 in0.0 mm 0.00 in0.0 mm 0.79 in20.1 mm
11:10 PM 62.8°F17.1°C -39.3°F-39.6°C 0% 4.0 mph NW6.4 kmh NW 8.0 mph12.9 kmh 30.03 in1016.9 mb 0.00 in0.0 mm 0.00 in0.0 mm 0.79 in20.1 mm
11:15 PM 62.9°F17.2°C -39.3°F-39.6°C 0% 5.0 mph NW8.0 kmh NW 9.0 mph14.5 kmh 30.02 in1016.6 mb 0.00 in0.0 mm 0.00 in0.0 mm 0.79 in20.1 mm
11:20 PM 62.9°F17.2°C -39.3°F-39.6°C 0% 4.0 mph NW6.4 kmh NW 9.0 mph14.5 kmh 30.03 in1016.9 mb 0.00 in0.0 mm 0.00 in0.0 mm 0.79 in20.1 mm
11:25 PM 62.8°F17.1°C -39.3°F-39.6°C 0% 4.0 mph NW6.4 kmh NW 8.0 mph12.9 kmh 30.03 in1016.9 mb 0.00 in0.0 mm 0.00 in0.0 mm 0.79 in20.1 mm
11:30 PM 62.7°F17.1°C -39.3°F-39.6°C 0% 4.0 mph NW6.4 kmh NW 10.0 mph16.1 kmh 30.03 in1016.9 mb 0.00 in0.0 mm 0.00 in0.0 mm 0.79 in20.1 mm
11:35 PM 62.7°F17.1°C -39.3°F-39.6°C 0% 4.0 mph NW6.4 kmh NW 10.0 mph16.1 kmh 30.03 in1016.9 mb 0.00 in0.0 mm 0.00 in0.0 mm 0.79 in20.1 mm
11:40 PM 62.6°F17.0°C -39.3°F-39.6°C 0% 4.0 mph NW6.4 kmh NW 7.0 mph11.3 kmh 30.03 in1016.9 mb 0.00 in0.0 mm 0.00 in0.0 mm 0.79 in20.1 mm
11:45 PM 62.5°F16.9°C -39.3°F-39.6°C 0% 3.0 mph NW4.8 kmh NW 7.0 mph11.3 kmh 30.03 in1016.9 mb 0.00 in0.0 mm 0.00 in0.0 mm 0.79 in20.1 mm
11:50 PM 62.5°F16.9°C -39.3°F-39.6°C 0% 3.0 mph NW4.8 kmh NW 7.0 mph11.3 kmh 30.03 in1016.9 mb 0.00 in0.0 mm 0.00 in0.0 mm 0.79 in20.1 mm
11:55 PM 62.5°F16.9°C -39.3°F-39.6°C 0% 3.0 mph NW4.8 kmh NW 7.0 mph11.3 kmh 30.03 in1016.9 mb 0.00 in0.0 mm 0.00 in0.0 mm 0.79 in20.1 mm